Lake Charles, LA

3:34 PM CST on December 10, 2016 (GMT -0600)
LCB Academy | | Change Station
Active Advisory: Flood Warning

Elev 33 ft 30.22 °N, 93.20 °W | Updated 9 minutes ago

Clear
Clear
57.2 °F
Feels Like 57.2 °F
N
4.0
Wind Variable Wind from ENE
Gusts 4.0 mph

Today
High -- | Low -- °F
--% Chance of Precip.
Yesterday
High -- | Low -- °F
Precip. -- in
Pressure 30.40 in
Visibility 10.0 miles
Clouds Clear
Dew Point 32 °F
Humidity 38%
Rainfall 0.00 in
Snow Depth Not available.
6:58 AM 5:13 PM
Waxing Gibbous, 86% visible
METAR KCWF 102050Z 09009KT 10SM SKC 14/M03 A3040
Pressure 30.40 in
Visibility 10.0 miles
Clouds Clear
Dew Point 32 °F
Humidity 38%
Rainfall 0.00 in
Snow Depth Not available.
6:58 AM 5:13 PM
Waxing Gibbous, 86% visible
METAR KCWF 102050Z 09009KT 10SM SKC 14/M03 A3040

10-Day Weather Forecast

Almanac

Astronomy

Dec. 10, 2016 Rise Set
Actual Time
Civil Twilight
Nautical Twilight
Astronomical Twilight
Moon
Length of Visible Light
Length of Day
Tomorrow will be .
, % of the Moon is Illuminated

Today's Extremes

State Highs State Lows

Community

WunderPhotos

Upload Photos

1,956,669 photos uploaded!

WunderBlog® & News

Nearby

Air Quality

  Air Quality AQ Index Pollutant
Not available.

Snow Depth

Station Depth Elevation

Earthquake Activity

City Distance Mag. Time & Date
Minimum magnitude displayed is 2.5.

Coastal Water Temperatures

Place Temperature

Stations

Nearby Weather Stations

Station Location Temp. Windchill Dew Point Humidity Wind Precip. Elev Updated Type
                   

Watches & Warnings

Flood Warning
Issued: 10:55 AM CST Dec. 10, 2016 – National Weather Service

The Flood Warning continues for
the Calcasieu River at Old Town Bay.
* From this afternoon to Wednesday morning... or until the warning is
cancelled.
* At 8:00 am Saturday the stage was 3.8 feet.
* Minor flooding is forecast.
* Flood stage is 4.0 feet.
* Forecast... the river is expected to fluctuate near flood stage
for the next several days.
* Impact... at stages near 4.0 feet... minor flooding of goos Ferry
Road will occur.
* Impact... at stages near 3.5 feet... ponding of water on low spots
along goos Ferry Road will occur.


Lat... Lon 3030 9329 3019 9321 3025 9308 3031 9303 3038 9314